createdAt,value
2019-02-06T00:02:19.467Z,25.30
2019-02-06T00:04:52.535Z,23.80
2019-02-06T00:07:25.339Z,20.37
2019-02-06T00:09:57.278Z,22.80
2019-02-06T00:12:29.486Z,24.47
2019-02-06T00:15:02.230Z,20.30
2019-02-06T00:17:33.825Z,23.13
2019-02-06T00:20:07.940Z,16.30
2019-02-06T00:22:40.399Z,17.10
2019-02-06T00:25:14.137Z,13.93
2019-02-06T00:27:46.567Z,16.17
2019-02-06T00:30:19.435Z,15.60
2019-02-06T00:32:50.692Z,16.00
2019-02-06T00:35:25.688Z,18.30
2019-02-06T00:37:55.751Z,15.80
2019-02-06T00:40:26.959Z,17.80
2019-02-06T00:42:58.197Z,19.67
2019-02-06T00:45:31.566Z,14.57
2019-02-06T00:48:05.481Z,9.17
2019-02-06T00:50:36.749Z,9.23
2019-02-06T00:53:08.611Z,8.17
2019-02-06T00:55:42.569Z,8.83
2019-02-06T00:58:16.605Z,11.80
2019-02-06T01:00:49.504Z,13.47
2019-02-06T01:03:20.737Z,8.53
2019-02-06T01:05:51.964Z,8.00
2019-02-06T01:08:27.430Z,12.37
2019-02-06T01:11:01.543Z,16.50
2019-02-06T01:13:32.948Z,16.80
2019-02-06T01:16:05.490Z,18.23
2019-02-06T01:18:38.703Z,17.73
2019-02-06T01:21:12.897Z,18.80
2019-02-06T01:23:46.725Z,16.67
2019-02-06T01:26:20.737Z,20.30
2019-02-06T01:28:55.967Z,21.93
2019-02-06T01:31:31.038Z,20.13
2019-02-06T01:34:02.357Z,19.90
2019-02-06T01:36:33.641Z,22.57
2019-02-06T01:39:11.015Z,21.73
2019-02-06T01:41:44.015Z,20.40
2019-02-06T01:44:17.908Z,23.17
2019-02-06T01:46:49.905Z,19.87
2019-02-06T01:49:22.731Z,19.97
2019-02-06T01:51:54.239Z,21.70
2019-02-06T01:54:27.067Z,19.80
2019-02-06T01:56:58.816Z,20.40
2019-02-06T01:59:32.651Z,17.50
2019-02-06T02:02:06.831Z,18.53
2019-02-06T02:04:38.928Z,19.80
2019-02-06T02:07:12.455Z,21.20
2019-02-06T02:09:45.084Z,19.20
2019-02-06T02:12:17.111Z,21.83
2019-02-06T02:14:51.674Z,17.33
2019-02-06T02:17:24.957Z,20.03
2019-02-06T02:19:59.274Z,20.77
2019-02-06T02:22:32.691Z,21.33
2019-02-06T02:25:05.191Z,21.50
2019-02-06T02:27:37.687Z,18.63
2019-02-06T02:30:11.098Z,18.30
2019-02-06T02:32:43.991Z,20.60
2019-02-06T02:35:18.172Z,20.33
2019-02-06T02:37:51.690Z,19.00
2019-02-06T02:40:25.828Z,17.23
2019-02-06T02:42:58.749Z,19.13
2019-02-06T02:45:33.073Z,16.43
2019-02-06T02:48:07.987Z,18.77
2019-02-06T02:50:42.820Z,17.60
2019-02-06T02:53:14.448Z,20.27
2019-02-06T02:55:48.259Z,19.40
2019-02-06T02:58:19.498Z,17.30
2019-02-06T03:01:15.686Z,19.07
2019-02-06T03:04:04.627Z,15.93
2019-02-06T03:06:36.112Z,17.40
2019-02-06T03:09:12.649Z,16.67
2019-02-06T03:11:45.436Z,15.57
2019-02-06T03:14:19.061Z,17.20
2019-02-06T03:16:53.110Z,17.53
2019-02-06T03:19:27.294Z,17.60
2019-02-06T03:21:58.536Z,16.10
2019-02-06T03:24:32.351Z,15.10
2019-02-06T03:27:06.461Z,16.77
2019-02-06T03:29:39.151Z,15.90
2019-02-06T03:32:11.128Z,16.70
2019-02-06T03:34:45.147Z,18.10
2019-02-06T03:37:19.032Z,16.90
2019-02-06T03:39:50.249Z,17.50
2019-02-06T03:42:23.306Z,18.03
2019-02-06T03:44:58.889Z,17.20
2019-02-06T03:47:31.364Z,17.47
2019-02-06T03:50:07.146Z,17.20
2019-02-06T03:52:39.526Z,14.20
2019-02-06T03:55:11.125Z,14.73
2019-02-06T03:57:44.392Z,16.03
2019-02-06T04:00:18.440Z,18.83
2019-02-06T04:02:53.960Z,20.57
2019-02-06T04:05:28.146Z,17.40
2019-02-06T04:08:00.525Z,20.63
2019-02-06T04:10:32.320Z,18.10
2019-02-06T04:13:06.207Z,17.27
2019-02-06T04:15:41.123Z,14.80
2019-02-06T04:18:14.633Z,16.67
2019-02-06T04:20:47.528Z,14.50
2019-02-06T04:23:21.331Z,17.10
2019-02-06T04:25:54.232Z,15.67
2019-02-06T04:28:27.487Z,15.03
2019-02-06T04:31:00.455Z,14.50
2019-02-06T04:33:32.986Z,15.90
2019-02-06T04:36:05.915Z,17.10
2019-02-06T04:38:41.149Z,16.50
2019-02-06T04:41:13.331Z,17.70
2019-02-06T04:43:46.440Z,18.00
2019-02-06T04:46:20.650Z,15.87
2019-02-06T04:48:53.951Z,15.20
2019-02-06T04:51:25.732Z,17.27
2019-02-06T04:53:59.744Z,16.30
2019-02-06T04:56:32.828Z,16.77
2019-02-06T04:59:04.699Z,17.93
2019-02-06T05:01:36.631Z,18.60
2019-02-06T05:04:09.820Z,19.17
2019-02-06T05:06:43.557Z,19.57
2019-02-06T05:09:14.883Z,17.80
2019-02-06T05:11:48.613Z,18.00
2019-02-06T05:14:23.100Z,19.40
2019-02-06T05:16:56.661Z,20.70
2019-02-06T05:19:27.897Z,20.97
2019-02-06T05:21:59.989Z,26.30
2019-02-06T05:24:32.923Z,23.63
2019-02-06T05:27:04.772Z,23.50
2019-02-06T05:29:37.765Z,22.07
2019-02-06T05:32:11.744Z,22.33
2019-02-06T05:34:47.034Z,19.97
2019-02-06T05:37:31.539Z,21.00
2019-02-06T05:39:57.756Z,17.53
2019-02-06T05:42:30.965Z,19.07
2019-02-06T05:45:02.961Z,20.47
2019-02-06T05:47:35.826Z,20.13
2019-02-06T05:50:10.821Z,19.57
2019-02-06T05:52:43.807Z,18.60
2019-02-06T05:55:17.085Z,19.40
2019-02-06T05:57:48.877Z,16.57
2019-02-06T06:00:27.647Z,16.97
2019-02-06T06:02:58.885Z,16.57
2019-02-06T06:05:30.445Z,17.80
2019-02-06T06:08:03.853Z,18.50
2019-02-06T06:10:36.012Z,20.77
2019-02-06T06:13:09.111Z,20.57
2019-02-06T06:15:44.602Z,21.33
2019-02-06T06:18:17.020Z,25.87
2019-02-06T06:20:51.012Z,24.30
2019-02-06T06:23:22.230Z,24.40
2019-02-06T06:25:55.121Z,22.87
2019-02-06T06:28:27.180Z,27.33
2019-02-06T06:31:00.966Z,27.13
2019-02-06T06:33:33.846Z,23.03
2019-02-06T06:36:06.439Z,20.23
2019-02-06T06:38:39.115Z,19.70
2019-02-06T06:41:11.282Z,17.60
2019-02-06T06:43:43.140Z,21.90
2019-02-06T06:46:16.141Z,24.30
2019-02-06T06:48:53.438Z,20.20
2019-02-06T06:51:28.935Z,19.60
2019-02-06T06:54:02.928Z,24.27
2019-02-06T06:56:36.451Z,23.33
2019-02-06T06:59:08.233Z,20.43
2019-02-06T07:01:42.392Z,18.07
2019-02-06T07:04:14.207Z,20.23
2019-02-06T07:06:48.014Z,21.27
2019-02-06T07:09:21.310Z,21.00
2019-02-06T07:11:55.258Z,21.20
2019-02-06T07:14:26.923Z,20.17
2019-02-06T07:17:00.316Z,22.27
2019-02-06T07:19:33.158Z,23.03
2019-02-06T07:22:05.261Z,22.37
2019-02-06T07:24:39.360Z,24.17
2019-02-06T07:27:14.781Z,30.30
2019-02-06T07:29:47.764Z,23.57
2019-02-06T07:32:21.406Z,24.30
2019-02-06T07:34:55.407Z,21.20
2019-02-06T07:37:29.244Z,20.20
2019-02-06T07:40:03.285Z,20.90
2019-02-06T07:42:36.347Z,20.57
2019-02-06T07:45:09.878Z,21.10
2019-02-06T07:47:42.430Z,21.63
2019-02-06T07:50:18.790Z,23.37
2019-02-06T07:52:50.572Z,22.00
2019-02-06T07:55:24.361Z,21.13
2019-02-06T07:57:56.565Z,25.53
2019-02-06T08:00:29.203Z,27.50
2019-02-06T08:03:00.585Z,25.87
2019-02-06T08:05:33.332Z,24.93
2019-02-06T08:08:05.732Z,21.87
2019-02-06T08:10:39.645Z,21.30
2019-02-06T08:13:12.533Z,24.07
2019-02-06T08:15:46.557Z,27.10
2019-02-06T08:18:20.556Z,26.70
2019-02-06T08:20:51.835Z,27.17
2019-02-06T08:23:24.738Z,26.10
2019-02-06T08:25:56.497Z,25.67
2019-02-06T08:28:30.417Z,26.97
2019-02-06T08:31:04.358Z,25.80
2019-02-06T08:33:38.327Z,27.97
2019-02-06T08:36:13.001Z,27.87
2019-02-06T08:38:50.255Z,32.93
2019-02-06T08:41:25.297Z,28.40
2019-02-06T08:43:57.736Z,26.30
2019-02-06T08:46:30.317Z,23.87
2019-02-06T08:49:02.556Z,21.93
2019-02-06T08:51:33.803Z,24.43
2019-02-06T08:54:07.678Z,22.63
2019-02-06T08:56:41.685Z,24.10
2019-02-06T08:59:14.661Z,22.00
2019-02-06T09:01:49.212Z,23.77
2019-02-06T09:04:22.774Z,22.00
2019-02-06T09:06:54.035Z,18.20
2019-02-06T09:09:25.278Z,19.10
2019-02-06T09:11:59.137Z,18.60
2019-02-06T09:14:33.024Z,19.57
2019-02-06T09:17:06.947Z,17.13
2019-02-06T09:19:39.692Z,17.53
2019-02-06T09:22:11.664Z,18.83
2019-02-06T09:24:45.662Z,17.50
2019-02-06T09:27:16.866Z,21.67
2019-02-06T09:29:49.664Z,20.13
2019-02-06T09:32:21.770Z,20.57
2019-02-06T09:34:55.832Z,21.33
2019-02-06T09:37:29.891Z,20.50
2019-02-06T09:40:02.126Z,20.70
2019-02-06T09:42:33.432Z,21.23
2019-02-06T09:45:07.257Z,18.83
2019-02-06T09:47:39.596Z,20.77
2019-02-06T09:50:14.344Z,18.90
2019-02-06T09:52:47.891Z,20.20
2019-02-06T09:55:21.911Z,19.70
2019-02-06T09:57:54.803Z,18.13
2019-02-06T10:00:32.607Z,16.87
2019-02-06T10:03:06.357Z,17.30
2019-02-06T10:05:39.371Z,17.60
2019-02-06T10:08:10.992Z,17.70
2019-02-06T10:10:43.000Z,16.57
2019-02-06T10:13:16.734Z,19.00
2019-02-06T10:15:50.023Z,20.90
2019-02-06T10:18:21.244Z,18.90
2019-02-06T10:20:53.543Z,19.30
2019-02-06T10:23:25.922Z,17.93
2019-02-06T10:25:59.967Z,25.00
2019-02-06T10:28:32.610Z,36.17
2019-02-06T10:31:05.050Z,42.90
2019-02-06T10:33:37.199Z,41.57
2019-02-06T10:36:11.477Z,24.50
2019-02-06T10:38:43.994Z,19.60
2019-02-06T10:41:15.230Z,23.10
2019-02-06T10:43:49.376Z,19.90
2019-02-06T10:46:21.657Z,22.00
2019-02-06T10:48:56.546Z,17.10
2019-02-06T10:51:28.276Z,19.53
2019-02-06T10:54:01.291Z,27.17
2019-02-06T10:56:33.541Z,18.17
2019-02-06T10:59:06.771Z,15.63
2019-02-06T11:01:40.755Z,11.50
2019-02-06T11:04:15.082Z,12.30
2019-02-06T11:06:49.811Z,11.60
2019-02-06T11:09:22.764Z,10.57
2019-02-06T11:11:56.561Z,9.30
2019-02-06T11:14:31.808Z,15.43
2019-02-06T11:17:04.223Z,15.80
2019-02-06T11:19:37.699Z,12.53
2019-02-06T11:22:09.489Z,13.00
2019-02-06T11:24:43.480Z,13.60
2019-02-06T11:27:17.107Z,13.10
2019-02-06T11:29:52.081Z,13.50
2019-02-06T11:32:24.543Z,13.60
2019-02-06T11:34:56.912Z,14.10
2019-02-06T11:37:29.379Z,15.37
2019-02-06T11:40:03.584Z,16.97
2019-02-06T11:42:36.438Z,16.83
2019-02-06T11:45:10.526Z,17.33
2019-02-06T11:47:42.526Z,16.43
2019-02-06T11:50:20.455Z,18.13
2019-02-06T11:52:53.647Z,19.83
2019-02-06T11:55:25.835Z,17.70
2019-02-06T11:57:58.503Z,20.07
2019-02-06T12:00:59.312Z,18.60
2019-02-06T12:03:30.709Z,18.93
2019-02-06T12:06:02.045Z,19.10
2019-02-06T12:08:33.789Z,21.00
2019-02-06T12:11:06.893Z,20.60
2019-02-06T12:13:40.681Z,21.43
2019-02-06T12:16:14.662Z,20.13
2019-02-06T12:18:52.294Z,21.10
2019-02-06T12:21:25.749Z,19.60
2019-02-06T12:24:01.654Z,21.03
2019-02-06T12:26:33.529Z,21.23
2019-02-06T12:29:05.846Z,20.13
2019-02-06T12:31:37.768Z,21.70
2019-02-06T12:34:09.638Z,21.60
2019-02-06T12:36:42.775Z,19.60
2019-02-06T12:39:14.331Z,20.63
2019-02-06T12:41:45.617Z,24.50
2019-02-06T12:44:19.561Z,17.87
2019-02-06T12:46:51.811Z,21.00
2019-02-06T12:49:25.326Z,21.50
2019-02-06T12:51:57.756Z,20.57
2019-02-06T12:54:29.884Z,19.33
2019-02-06T12:57:02.725Z,20.67
2019-02-06T12:59:34.357Z,19.67
2019-02-06T13:02:08.203Z,17.50
2019-02-06T13:04:41.833Z,20.90
2019-02-06T13:07:17.053Z,19.20
2019-02-06T13:09:50.876Z,17.30
2019-02-06T13:12:24.043Z,19.53
2019-02-06T13:14:55.824Z,21.47
2019-02-06T13:17:28.123Z,24.40
2019-02-06T13:19:59.401Z,29.20
2019-02-06T13:22:32.902Z,23.40
2019-02-06T13:25:06.344Z,21.93
2019-02-06T13:27:40.649Z,21.70
2019-02-06T13:30:18.551Z,22.33
2019-02-06T13:32:53.850Z,23.00
2019-02-06T13:35:25.915Z,23.17
2019-02-06T13:37:59.852Z,21.20
2019-02-06T13:40:44.833Z,21.13
2019-02-06T13:43:07.873Z,22.03
2019-02-06T13:45:47.297Z,21.77
2019-02-06T13:48:18.893Z,21.90
2019-02-06T13:50:51.934Z,22.63
2019-02-06T13:53:25.927Z,21.13
2019-02-06T13:55:57.127Z,21.50
2019-02-06T13:58:28.379Z,23.70
2019-02-06T14:00:59.947Z,23.10
2019-02-06T14:03:33.020Z,23.70
2019-02-06T14:06:07.150Z,23.60
2019-02-06T14:08:40.030Z,24.23
2019-02-06T14:11:11.973Z,21.90
2019-02-06T14:13:43.176Z,22.13
2019-02-06T14:16:14.514Z,23.03
2019-02-06T14:18:46.377Z,26.13
2019-02-06T14:21:18.103Z,25.67
2019-02-06T14:24:15.761Z,24.80
2019-02-06T14:27:24.298Z,23.13
2019-02-06T14:30:50.508Z,23.97
2019-02-06T14:33:39.467Z,26.00
2019-02-06T14:36:41.179Z,26.00
2019-02-06T14:39:29.643Z,24.90
2019-02-06T14:42:39.876Z,25.93
2019-02-06T14:46:02.978Z,24.83
2019-02-06T14:49:11.087Z,23.90
2019-02-06T14:52:28.950Z,28.83
2019-02-06T14:55:21.139Z,41.70
2019-02-06T14:58:55.603Z,56.90
2019-02-06T15:01:56.327Z,38.27
2019-02-06T15:05:08.501Z,33.83
2019-02-06T15:08:25.456Z,30.87
2019-02-06T15:11:25.409Z,27.20
2019-02-06T15:14:26.487Z,28.37
2019-02-06T15:17:46.444Z,31.60
2019-02-06T15:20:47.043Z,31.93
2019-02-06T15:23:36.474Z,25.50
2019-02-06T15:26:51.373Z,25.90
2019-02-06T15:29:46.247Z,24.53
2019-02-06T15:33:26.798Z,25.97
2019-02-06T15:36:20.774Z,22.67
2019-02-06T15:39:40.929Z,22.80
2019-02-06T15:42:43.178Z,20.63
2019-02-06T15:45:34.129Z,20.10
2019-02-06T15:48:11.148Z,22.47
2019-02-06T15:51:09.671Z,20.17
2019-02-06T15:54:08.014Z,21.40
2019-02-06T15:57:23.409Z,22.20
2019-02-06T16:00:31.704Z,25.70
2019-02-06T16:04:17.910Z,24.23
2019-02-06T16:07:28.937Z,28.57
2019-02-06T16:10:38.164Z,24.87
2019-02-06T16:13:47.356Z,23.97
2019-02-06T16:17:10.628Z,26.07
2019-02-06T16:20:15.535Z,22.43
2019-02-06T16:23:35.682Z,24.93
2019-02-06T16:26:41.377Z,20.53
2019-02-06T16:30:00.237Z,19.73
2019-02-06T16:33:25.077Z,17.80
2019-02-06T16:36:32.804Z,18.30
2019-02-06T16:39:28.938Z,20.17
2019-02-06T16:42:41.322Z,17.13
2019-02-06T16:45:51.385Z,18.47
2019-02-06T16:48:56.774Z,16.20
2019-02-06T16:52:22.458Z,24.37
2019-02-06T16:55:19.065Z,20.07
2019-02-06T16:58:39.080Z,17.57
2019-02-06T17:02:01.567Z,19.40
2019-02-06T17:05:12.806Z,20.70
2019-02-06T17:08:06.182Z,21.30
2019-02-06T17:11:26.620Z,19.47
2019-02-06T17:14:26.098Z,20.90
2019-02-06T17:17:32.690Z,21.63
2019-02-06T17:20:48.527Z,21.70
2019-02-06T17:23:42.360Z,18.87
2019-02-06T17:26:55.309Z,17.23
2019-02-06T17:30:03.987Z,23.20
2019-02-06T17:33:01.826Z,24.53
2019-02-06T17:36:08.073Z,21.10
2019-02-06T17:39:23.858Z,20.47
2019-02-06T17:42:24.623Z,20.13
2019-02-06T17:45:27.095Z,18.30
2019-02-06T17:48:35.271Z,17.40
2019-02-06T17:51:48.511Z,19.80
2019-02-06T17:54:54.610Z,25.10
2019-02-06T17:57:26.059Z,24.67
2019-02-06T18:00:00.571Z,24.70
2019-02-06T18:02:31.928Z,26.97
2019-02-06T18:05:06.050Z,25.40
2019-02-06T18:07:40.193Z,27.77
2019-02-06T18:10:15.684Z,29.17
2019-02-06T18:12:47.126Z,27.67
2019-02-06T18:15:19.061Z,31.23
2019-02-06T18:17:50.308Z,28.87
2019-02-06T18:20:23.081Z,25.00
2019-02-06T18:22:55.892Z,29.50
2019-02-06T18:25:28.139Z,32.30
2019-02-06T18:28:02.383Z,31.67
2019-02-06T18:30:34.076Z,27.80
2019-02-06T18:33:07.316Z,29.23
2019-02-06T18:35:40.603Z,27.47
2019-02-06T18:38:14.059Z,18.17
2019-02-06T18:40:45.828Z,20.90
2019-02-06T18:43:17.297Z,24.23
2019-02-06T18:45:51.171Z,25.03
2019-02-06T18:48:25.679Z,25.50
2019-02-06T18:50:58.339Z,28.70
2019-02-06T18:53:29.570Z,33.63
2019-02-06T18:56:03.203Z,25.83
2019-02-06T18:58:34.498Z,18.77
2019-02-06T19:01:07.120Z,17.97
2019-02-06T19:03:42.456Z,17.90
2019-02-06T19:06:18.817Z,23.70
2019-02-06T19:08:53.971Z,19.67
2019-02-06T19:11:27.758Z,15.87
2019-02-06T19:14:02.795Z,18.43
2019-02-06T19:16:34.209Z,31.10
2019-02-06T19:19:07.633Z,15.10
2019-02-06T19:21:40.384Z,10.83
2019-02-06T19:24:11.578Z,12.37
2019-02-06T19:26:43.904Z,12.20
2019-02-06T19:29:16.532Z,18.23
2019-02-06T19:31:49.844Z,20.30
2019-02-06T19:34:21.046Z,21.03
2019-02-06T19:36:52.277Z,22.60
2019-02-06T19:39:25.805Z,23.67
2019-02-06T19:41:59.583Z,22.43
2019-02-06T19:44:33.578Z,21.53
2019-02-06T19:47:07.603Z,24.30
2019-02-06T19:49:41.607Z,22.00
2019-02-06T19:52:13.049Z,30.80
2019-02-06T19:54:48.426Z,30.87
2019-02-06T19:57:20.554Z,29.97
2019-02-06T19:59:56.448Z,31.87
2019-02-06T20:02:28.721Z,34.30
2019-02-06T20:05:01.738Z,34.60
2019-02-06T20:07:34.027Z,29.47
2019-02-06T20:10:08.858Z,35.10
2019-02-06T20:12:41.804Z,33.07
2019-02-06T20:15:16.181Z,29.27
2019-02-06T20:17:49.801Z,29.70
2019-02-06T20:20:24.958Z,23.60
2019-02-06T20:22:58.503Z,23.30
2019-02-06T20:25:31.932Z,25.47
2019-02-06T20:28:06.256Z,22.27
2019-02-06T20:30:39.021Z,24.23
2019-02-06T20:33:11.182Z,24.00
2019-02-06T20:35:44.896Z,21.90
2019-02-06T20:38:20.488Z,19.90
2019-02-06T20:40:55.130Z,20.80
2019-02-06T20:43:28.102Z,26.27
2019-02-06T20:46:01.105Z,22.97
2019-02-06T20:48:34.861Z,22.17
2019-02-06T20:51:06.299Z,19.93
2019-02-06T20:53:40.477Z,16.97
2019-02-06T20:56:14.036Z,18.70
2019-02-06T20:58:48.140Z,19.13
2019-02-06T21:01:22.877Z,23.77
2019-02-06T21:03:56.204Z,23.57
2019-02-06T21:06:29.297Z,21.13
2019-02-06T21:09:11.555Z,19.30
2019-02-06T21:11:43.360Z,27.17
2019-02-06T21:14:16.930Z,26.60
2019-02-06T21:16:48.315Z,24.17
2019-02-06T21:19:22.578Z,24.47
2019-02-06T21:21:56.361Z,21.93
2019-02-06T21:24:29.090Z,19.80
2019-02-06T21:27:03.151Z,16.20
2019-02-06T21:29:34.609Z,14.20
2019-02-06T21:32:06.053Z,10.90
2019-02-06T21:34:39.247Z,10.50
2019-02-06T21:37:14.528Z,11.50
2019-02-06T21:39:48.829Z,16.87
2019-02-06T21:42:22.460Z,22.13
2019-02-06T21:44:54.902Z,20.50
2019-02-06T21:47:26.180Z,19.00
2019-02-06T21:49:59.400Z,14.47
2019-02-06T21:52:33.117Z,14.93
2019-02-06T21:55:05.662Z,16.97
2019-02-06T21:57:38.164Z,15.73
2019-02-06T22:00:21.128Z,15.80
2019-02-06T22:02:55.302Z,17.90
2019-02-06T22:05:31.111Z,14.10
2019-02-06T22:08:03.019Z,20.93
2019-02-06T22:10:34.551Z,17.93
2019-02-06T22:13:07.423Z,12.00
2019-02-06T22:15:39.151Z,7.07
2019-02-06T22:18:12.272Z,6.00
2019-02-06T22:20:46.268Z,10.60
2019-02-06T22:23:20.297Z,17.07
2019-02-06T22:25:54.215Z,19.20
2019-02-06T22:28:25.627Z,18.90
2019-02-06T22:30:59.336Z,16.20
2019-02-06T22:33:32.254Z,12.53
2019-02-06T22:36:04.279Z,13.60
2019-02-06T22:38:37.433Z,11.03
2019-02-06T22:41:11.458Z,11.40
2019-02-06T22:43:43.403Z,11.37
2019-02-06T22:46:16.379Z,9.43
2019-02-06T22:48:49.194Z,9.23
2019-02-06T22:51:21.540Z,8.90
2019-02-06T22:53:57.686Z,13.47
2019-02-06T22:56:29.304Z,11.90
2019-02-06T22:59:02.379Z,10.37
2019-02-06T23:01:43.003Z,11.60
2019-02-06T23:04:14.490Z,17.10
2019-02-06T23:06:47.414Z,17.37
2019-02-06T23:09:22.985Z,18.23
2019-02-06T23:11:56.025Z,19.60
2019-02-06T23:14:30.619Z,17.20
2019-02-06T23:17:03.466Z,10.70
2019-02-06T23:19:34.788Z,6.40
2019-02-06T23:22:09.871Z,5.80
2019-02-06T23:24:43.640Z,4.83
2019-02-06T23:27:16.642Z,4.60
2019-02-06T23:29:50.430Z,5.80
2019-02-06T23:32:26.200Z,9.20
2019-02-06T23:34:58.659Z,7.40
2019-02-06T23:37:30.540Z,5.50
2019-02-06T23:40:03.531Z,4.07
2019-02-06T23:42:34.921Z,4.13
2019-02-06T23:45:08.134Z,7.23
2019-02-06T23:47:41.545Z,7.93
2019-02-06T23:50:15.601Z,9.30
2019-02-06T23:52:49.605Z,7.73
2019-02-06T23:55:23.549Z,9.70
2019-02-06T23:57:59.027Z,11.77
